| time (UTC) | temp C | wind direction | speed KPH | gust KPH | rain 1hr cm | rain 24hr cm | rain mn cm | humidity % | barometer mb |
| 20260505071532 | 28 | 0 | 0.0 | 0.0 | 0.00 | 0.00 | 0.00 | 63 | 1016.0 |
| 20260505070030 | 28 | 0 | 0.0 | 22.5 | 0.00 | 0.00 | 0.00 | 66 | 1016.1 |
| 20260505064529 | 27 | 45 | 8.0 | 22.5 | 0.00 | 0.00 | 0.00 | 66 | 1016.3 |
| 20260505063028 | 28 | 48 | 6.4 | 19.3 | 0.00 | 0.00 | 0.00 | 64 | 1016.4 |
| 20260505061547 | 28 | 47 | 6.4 | 19.3 | 0.00 | 0.00 | 0.00 | 64 | 1016.6 |
| 20260505060028 | 27 | 49 | 9.7 | 20.9 | 0.00 | 0.00 | 0.00 | 65 | 1016.5 |
| 20260505054542 | 26 | 49 | 11.3 | 24.1 | 0.00 | 0.00 | 0.00 | 68 | 1016.5 |
| 20260505053028 | 26 | 49 | 8.0 | 17.7 | 0.00 | 0.00 | 0.00 | 68 | 1016.5 |
| 20260505051528 | 26 | 51 | 4.8 | 14.5 | 0.00 | 0.00 | 0.00 | 69 | 1016.5 |
| 20260505041528 | 25 | 48 | 1.6 | 8.0 | 0.00 | 0.00 | 0.00 | 70 | 1016.4 |
| 20260505040040 | 25 | 48 | 1.6 | 6.4 | 0.00 | 0.00 | 0.00 | 67 | 1016.4 |
| 20260505034537 | 24 | 48 | 4.8 | 11.3 | 0.00 | 0.00 | 0.00 | 67 | 1016.2 |
| 20260505033030 | 23 | 48 | 0.0 | 3.2 | 0.00 | 0.00 | 0.00 | 70 | 1016.1 |
| 20260505031528 | 22 | 48 | 1.6 | 6.4 | 0.00 | 0.00 | 0.00 | 73 | 1016.0 |
| 20260505030030 | 22 | 48 | 1.6 | 14.5 | 0.00 | 0.00 | 0.00 | 73 | 1015.9 |
| 20260505024528 | 22 | 48 | 1.6 | 8.0 | 0.00 | 0.00 | 0.00 | 74 | 1015.8 |
| 20260505023031 | 22 | 48 | 3.2 | 8.0 | 0.00 | 0.00 | 0.00 | 75 | 1015.8 |
| 20260505021533 | 22 | 48 | 0.0 | 3.2 | 0.00 | 0.00 | 0.00 | 75 | 1015.7 |
| 20260505020037 | 22 | 48 | 1.6 | 1.6 | 0.00 | 0.00 | 0.00 | 75 | 1015.6 |
| 20260505014528 | 22 | 48 | 0.0 | 1.6 | 0.00 | 0.00 | 0.00 | 75 | 1015.6 |
| 20260505013031 | 22 | 48 | 0.0 | 1.6 | 0.00 | 0.00 | 0.00 | 73 | 1015.5 |
| 20260505011530 | 22 | 48 | 1.6 | 4.8 | 0.00 | 0.00 | 0.00 | 73 | 1015.4 |
| 20260505010031 | 22 | 48 | 0.0 | 6.4 | 0.00 | 0.00 | 0.00 | 70 | 1015.2 |
| 20260505004528 | 22 | 48 | 3.2 | 12.9 | 0.00 | 0.00 | 0.00 | 69 | 1015.1 |
| 20260505003027 | 22 | 48 | 1.6 | 3.2 | 0.00 | 0.00 | 0.00 | 73 | 1015.3 |
| 20260505001530 | 22 | 0 | 0.0 | 3.2 | 0.00 | 0.00 | 0.00 | 74 | 1015.4 |
| 20260505000043 | 22 | 0 | 0.0 | 1.6 | 0.00 | 0.00 | 0.00 | 74 | 1015.4 |
| 20260504234533 | 22 | 48 | 0.0 | 1.6 | 0.00 | 0.00 | 0.00 | 75 | 1015.4 |
| 20260504233030 | 22 | 0 | 0.0 | 1.6 | 0.00 | 0.00 | 0.00 | 76 | 1015.4 |
| 20260504231528 | 22 | 0 | 0.0 | 1.6 | 0.00 | 0.00 | 0.00 | 77 | 1015.5 |
| 20260504230028 | 22 | 48 | 0.0 | 1.6 | 0.00 | 0.00 | 0.00 | 76 | 1015.5 |
| 20260504224527 | 22 | 0 | 0.0 | 1.6 | 0.00 | 0.00 | 0.00 | 76 | 1015.6 |
| 20260504223028 | 22 | 48 | 0.0 | 1.6 | 0.00 | 0.00 | 0.00 | 76 | 1015.7 |
| 20260504221530 | 22 | 0 | 0.0 | 1.6 | 0.00 | 0.00 | 0.00 | 76 | 1015.8 |
| 20260504220043 | 22 | 0 | 0.0 | 1.6 | 0.00 | 0.00 | 0.00 | 76 | 1015.9 |
| 20260504214535 | 22 | 0 | 0.0 | 1.6 | 0.00 | 0.00 | 0.00 | 76 | 1016.0 |
| 20260504213035 | 22 | 0 | 0.0 | 3.2 | 0.00 | 0.00 | 0.00 | 75 | 1016.1 |
| 20260504211537 | 23 | 0 | 0.0 | 4.8 | 0.00 | 0.00 | 0.00 | 72 | 1016.1 |
| 20260504210029 | 23 | 48 | 4.8 | 12.9 | 0.00 | 0.00 | 0.00 | 71 | 1016.2 |
| 20260504204537 | 23 | 48 | 4.8 | 11.3 | 0.00 | 0.00 | 0.00 | 72 | 1016.3 |
| 20260504203029 | 23 | 48 | 4.8 | 11.3 | 0.00 | 0.00 | 0.00 | 72 | 1016.4 |
| 20260504201529 | 22 | 48 | 0.0 | 3.2 | 0.00 | 0.00 | 0.00 | 76 | 1016.4 |
| 20260504200028 | 22 | 0 | 0.0 | 1.6 | 0.00 | 0.00 | 0.00 | 75 | 1016.5 |
| 20260504194532 | 23 | 0 | 0.0 | 1.6 | 0.00 | 0.00 | 0.00 | 75 | 1016.5 |
| 20260504193031 | 23 | 0 | 0.0 | 0.0 | 0.00 | 0.00 | 0.00 | 75 | 1016.7 |
| 20260504191529 | 23 | 0 | 0.0 | 4.8 | 0.00 | 0.00 | 0.00 | 74 | 1016.7 |
| 20260504190033 | 23 | 48 | 0.0 | 3.2 | 0.00 | 0.00 | 0.00 | 74 | 1016.8 |
| 20260504184529 | 23 | 48 | 3.2 | 11.3 | 0.00 | 0.00 | 0.00 | 72 | 1016.6 |
| 20260504183030 | 23 | 48 | 3.2 | 9.7 | 0.00 | 0.00 | 0.00 | 73 | 1016.6 |
| 20260504181534 | 23 | 48 | 6.4 | 11.3 | 0.00 | 0.00 | 0.00 | 73 | 1016.6 |
| 20260504180028 | 23 | 48 | 6.4 | 9.7 | 0.00 | 0.00 | 0.00 | 73 | 1016.6 |
| 20260504174528 | 23 | 48 | 6.4 | 11.3 | 0.00 | 0.00 | 0.00 | 73 | 1016.5 |
| 20260504173030 | 24 | 48 | 8.0 | 14.5 | 0.00 | 0.00 | 0.00 | 74 | 1016.7 |
| 20260504171529 | 24 | 49 | 6.4 | 11.3 | 0.00 | 0.00 | 0.00 | 74 | 1016.5 |